createdAt,value
2023-02-27T00:03:49.044Z,1.3
2023-02-27T00:08:55.125Z,1.3
2023-02-27T00:14:01.156Z,1.2
2023-02-27T00:19:07.212Z,1.2
2023-02-27T00:24:13.305Z,1.2
2023-02-27T00:29:21.262Z,1.2
2023-02-27T00:34:27.318Z,1.1
2023-02-27T00:39:33.407Z,1.1
2023-02-27T00:44:41.373Z,1.1
2023-02-27T00:49:47.408Z,1
2023-02-27T00:54:53.489Z,1
2023-02-27T00:59:59.624Z,1
2023-02-27T01:05:05.638Z,1
2023-02-27T01:10:11.741Z,0.9
2023-02-27T01:15:17.867Z,0.9
2023-02-27T01:20:23.905Z,0.9
2023-02-27T01:25:29.966Z,0.8
2023-02-27T01:30:38.030Z,0.8
2023-02-27T01:35:44.009Z,0.8
2023-02-27T01:40:51.934Z,0.8
2023-02-27T01:45:58.093Z,0.7
2023-02-27T01:51:04.080Z,0.7
2023-02-27T01:56:10.162Z,0.7
2023-02-27T02:01:16.338Z,0.6
2023-02-27T02:06:22.309Z,0.6
2023-02-27T02:11:28.727Z,0.6
2023-02-27T02:16:34.572Z,0.5
2023-02-27T02:21:40.515Z,0.5
2023-02-27T02:26:46.612Z,0.5
2023-02-27T02:31:52.940Z,0.5
2023-02-27T02:36:58.783Z,0.4
2023-02-27T02:47:12.885Z,0.4
2023-02-27T02:52:18.875Z,0.4
2023-02-27T02:57:24.923Z,0.3
2023-02-27T03:02:31.038Z,0.3
2023-02-27T03:07:37.158Z,0.3
2023-02-27T03:12:43.172Z,0.2
2023-02-27T03:17:49.307Z,0.2
2023-02-27T03:22:55.328Z,0.2
2023-02-27T03:28:01.416Z,0.2
2023-02-27T03:33:07.800Z,0.1
2023-02-27T03:38:13.545Z,0.1
2023-02-27T03:43:19.627Z,0.1
2023-02-27T03:48:25.714Z,0.1
2023-02-27T03:53:33.686Z,0
2023-02-27T03:58:39.727Z,0
2023-02-27T04:03:45.867Z,0
2023-02-27T04:08:51.880Z,0
2023-02-27T04:13:57.955Z,0
2023-02-27T04:19:04.061Z,0
2023-02-27T04:24:10.088Z,0
2023-02-27T04:29:18.048Z,0
2023-02-27T04:34:24.188Z,-0.1
2023-02-27T04:39:30.218Z,-0.1
2023-02-27T04:44:36.306Z,-0.1
2023-02-27T04:49:42.398Z,-0.1
2023-02-27T04:54:48.453Z,-0.2
2023-02-27T04:59:54.529Z,-0.2
2023-02-27T05:05:00.732Z,-0.2
2023-02-27T05:10:06.685Z,-0.2
2023-02-27T05:15:14.627Z,-0.3
2023-02-27T05:20:20.734Z,-0.3
2023-02-27T05:25:26.782Z,-0.3
2023-02-27T05:30:32.950Z,-0.3
2023-02-27T05:35:40.874Z,-0.3
2023-02-27T05:40:48.749Z,-0.4
2023-02-27T05:45:54.864Z,-0.4
2023-02-27T05:51:02.812Z,-0.4
2023-02-27T05:56:08.894Z,-0.4
2023-02-27T06:01:16.816Z,-0.5
2023-02-27T06:06:23.000Z,-0.5
2023-02-27T06:11:28.971Z,-0.5
2023-02-27T06:16:37.174Z,-0.5
2023-02-27T06:21:43.074Z,-0.6
2023-02-27T06:26:49.085Z,-0.6
2023-02-27T06:31:55.245Z,-0.6
2023-02-27T06:37:04.087Z,-0.6
2023-02-27T06:42:07.353Z,-0.6
2023-02-27T06:47:15.263Z,-0.7
2023-02-27T06:52:21.353Z,-0.7
2023-02-27T06:57:27.402Z,-0.7
2023-02-27T07:02:33.466Z,-0.7
2023-02-27T07:07:39.684Z,-0.7
2023-02-27T07:12:45.622Z,-0.8
2023-02-27T07:17:53.587Z,-0.8
2023-02-27T07:22:59.693Z,-0.8
2023-02-27T07:28:05.762Z,-0.8
2023-02-27T07:33:11.806Z,-0.8
2023-02-27T07:38:17.918Z,-0.8
2023-02-27T07:43:23.963Z,-0.8
2023-02-27T07:48:30.063Z,-0.8
2023-02-27T07:53:36.157Z,-0.8
2023-02-27T07:58:42.251Z,-0.8
2023-02-27T08:03:48.302Z,-0.8
2023-02-27T08:08:56.271Z,-0.8
2023-02-27T08:14:03.044Z,-0.8
2023-02-27T08:19:08.411Z,-0.8
2023-02-27T08:24:14.500Z,-0.7
2023-02-27T08:29:20.533Z,-0.7
2023-02-27T08:34:26.631Z,-0.7
2023-02-27T08:39:34.599Z,-0.7
2023-02-27T08:44:40.634Z,-0.7
2023-02-27T08:49:46.702Z,-0.6
2023-02-27T08:54:52.825Z,-0.6
2023-02-27T08:59:58.934Z,-0.6
2023-02-27T09:05:06.827Z,-0.5
2023-02-27T09:10:12.918Z,-0.5
2023-02-27T09:15:20.873Z,-0.5
2023-02-27T09:20:28.820Z,-0.4
2023-02-27T09:25:34.923Z,-0.4
2023-02-27T09:30:40.976Z,-0.4
2023-02-27T09:35:47.134Z,-0.3
2023-02-27T09:40:55.014Z,-0.3
2023-02-27T09:46:01.136Z,-0.2
2023-02-27T09:51:07.147Z,-0.2
2023-02-27T09:56:15.142Z,-0.1
2023-02-27T10:01:21.187Z,-0.1
2023-02-27T10:06:27.649Z,-0.1
2023-02-27T10:11:35.248Z,0
2023-02-27T10:16:41.328Z,0
2023-02-27T10:21:47.369Z,0
2023-02-27T10:26:53.441Z,0.1
2023-02-27T10:32:01.476Z,0.1
2023-02-27T10:37:07.505Z,0.2
2023-02-27T10:42:13.569Z,0.2
2023-02-27T10:47:21.487Z,0.3
2023-02-27T10:52:27.563Z,0.4
2023-02-27T10:57:33.794Z,0.4
2023-02-27T11:02:41.591Z,0.5
2023-02-27T11:07:47.684Z,0.6
2023-02-27T11:12:53.763Z,0.6
2023-02-27T11:18:01.694Z,0.7
2023-02-27T11:23:07.784Z,0.8
2023-02-27T11:28:13.872Z,0.8
2023-02-27T11:33:21.787Z,0.9
2023-02-27T11:38:27.870Z,1
2023-02-27T11:43:33.987Z,1.1
2023-02-27T11:48:40.026Z,1.1
2023-02-27T11:53:46.088Z,1.2
2023-02-27T11:58:52.198Z,1.3
2023-02-27T12:03:58.368Z,1.4
2023-02-27T12:09:04.326Z,1.5
2023-02-27T12:14:10.413Z,1.6
2023-02-27T12:19:16.499Z,1.7
2023-02-27T12:24:22.569Z,1.8
2023-02-27T12:29:28.664Z,1.8
2023-02-27T12:34:34.718Z,1.9
2023-02-27T12:39:40.780Z,2
2023-02-27T12:44:46.879Z,2.1
2023-02-27T12:49:54.809Z,2.2
2023-02-27T12:55:02.773Z,2.3
2023-02-27T13:00:10.738Z,2.4
2023-02-27T13:05:18.670Z,2.5
2023-02-27T13:10:26.609Z,2.6
2023-02-27T13:15:34.599Z,2.7
2023-02-27T13:20:42.564Z,2.9
2023-02-27T13:25:50.460Z,3
2023-02-27T13:30:58.449Z,3.1
2023-02-27T13:36:06.460Z,3.2
2023-02-27T13:41:14.316Z,3.3
2023-02-27T13:46:22.406Z,3.4
2023-02-27T13:51:30.255Z,3.5
2023-02-27T13:56:38.183Z,3.6
2023-02-27T14:01:46.161Z,3.7
2023-02-27T14:06:54.083Z,3.8
2023-02-27T14:12:02.030Z,3.9
2023-02-27T14:17:09.988Z,4.1
2023-02-27T14:22:17.950Z,4.2
2023-02-27T14:27:25.946Z,4.3
2023-02-27T14:32:33.860Z,4.4
2023-02-27T14:37:41.789Z,4.5
2023-02-27T14:42:49.720Z,4.6
2023-02-27T14:47:57.720Z,4.7
2023-02-27T14:53:05.643Z,4.8
2023-02-27T14:58:13.605Z,4.9
2023-02-27T15:03:21.580Z,5
2023-02-27T15:08:29.513Z,5.3
2023-02-27T15:13:37.473Z,5.9
2023-02-27T15:18:45.427Z,6.4
2023-02-27T15:23:53.363Z,6.9
2023-02-27T15:29:01.296Z,7.3
2023-02-27T15:34:09.274Z,7.6
2023-02-27T15:39:17.191Z,7.9
2023-02-27T15:44:25.145Z,8.2
2023-02-27T15:49:33.106Z,8.4
2023-02-27T15:54:41.045Z,8.6
2023-02-27T15:59:48.971Z,8.8
2023-02-27T16:04:56.963Z,9
2023-02-27T16:10:04.865Z,9.2
2023-02-27T16:15:12.832Z,9.3
2023-02-27T16:20:20.789Z,9.5
2023-02-27T16:25:28.729Z,9.6
2023-02-27T16:30:34.791Z,9.8
2023-02-27T16:35:40.902Z,9.9
2023-02-27T16:40:48.911Z,10
2023-02-27T16:45:54.904Z,10.2
2023-02-27T16:51:00.988Z,10.3
2023-02-27T16:56:08.860Z,10.4
2023-02-27T17:01:15.011Z,10.5
2023-02-27T17:06:21.032Z,10.6
2023-02-27T17:11:28.980Z,10.7
2023-02-27T17:16:35.039Z,10.8
2023-02-27T17:21:41.150Z,10.9
2023-02-27T17:26:50.941Z,11
2023-02-27T17:31:55.247Z,11.1
2023-02-27T17:37:01.234Z,11.2
2023-02-27T17:42:07.259Z,11.2
2023-02-27T17:47:13.313Z,11.4
2023-02-27T17:52:19.554Z,11.7
2023-02-27T18:02:33.457Z,12.1
2023-02-27T18:07:39.509Z,12.3
2023-02-27T18:12:45.556Z,12.5
2023-02-27T18:17:53.482Z,12.7
2023-02-27T18:23:01.461Z,12.9
2023-02-27T18:28:09.388Z,13.1
2023-02-27T18:33:17.349Z,13.3
2023-02-27T18:38:25.317Z,13.4
2023-02-27T18:43:33.212Z,13.6
2023-02-27T18:48:41.156Z,13.7
2023-02-27T18:53:49.194Z,13.9
2023-02-27T19:04:05.187Z,14.2
2023-02-27T19:09:13.009Z,14.3
2023-02-27T19:14:20.907Z,14.4
2023-02-27T19:19:28.856Z,14.5
2023-02-27T19:24:36.823Z,14.6
2023-02-27T19:34:52.707Z,14.8
2023-02-27T19:39:58.791Z,14.9
2023-02-27T19:45:06.701Z,14.9
2023-02-27T19:50:13.037Z,15.1
2023-02-27T19:55:20.716Z,15.2
2023-02-27T20:00:28.623Z,15.3
2023-02-27T20:05:36.562Z,15.4
2023-02-27T20:15:52.496Z,15.6
2023-02-27T20:21:00.404Z,15.4
2023-02-27T20:26:08.444Z,15.1
2023-02-27T20:31:14.543Z,14.8
2023-02-27T20:36:20.506Z,14.5
2023-02-27T20:41:29.553Z,14.3
2023-02-27T20:46:32.676Z,14
2023-02-27T20:51:38.706Z,13.9
2023-02-27T20:56:46.638Z,13.7
2023-02-27T21:01:54.819Z,13.6
2023-02-27T21:07:02.544Z,13.4
2023-02-27T21:12:10.505Z,13.3
2023-02-27T21:17:18.483Z,13.2
2023-02-27T21:22:26.389Z,13.1
2023-02-27T21:27:34.318Z,13
2023-02-27T21:32:42.302Z,12.9
2023-02-27T21:37:50.219Z,12.8
2023-02-27T21:48:06.152Z,12.6
2023-02-27T21:53:14.061Z,12.5
2023-02-27T21:58:21.994Z,12.4
2023-02-27T22:03:29.991Z,12.3
2023-02-27T22:08:37.884Z,12.3
2023-02-27T22:13:45.836Z,12.2
2023-02-27T22:18:53.804Z,12.1
2023-02-27T22:24:01.741Z,12
2023-02-27T22:29:09.705Z,12
2023-02-27T22:34:17.663Z,11.9
2023-02-27T22:39:25.585Z,11.8
2023-02-27T22:44:33.507Z,11.7
2023-02-27T22:49:41.488Z,11.6
2023-02-27T22:54:49.421Z,11.6
2023-02-27T22:59:55.464Z,11.5
2023-02-27T23:05:03.482Z,11.4
2023-02-27T23:10:11.396Z,11.3
2023-02-27T23:15:17.514Z,11.3
2023-02-27T23:20:25.432Z,11.2
2023-02-27T23:25:31.493Z,11.1
2023-02-27T23:30:37.523Z,11
2023-02-27T23:35:43.657Z,11
2023-02-27T23:40:49.689Z,10.9
2023-02-27T23:45:55.812Z,10.8
2023-02-27T23:51:01.925Z,10.7
2023-02-27T23:56:07.884Z,10.7
